Time;durP1;ratioP1;P1;durP2;ratioP2;P2;SDS_P1;SDS_P2;PMS_P1;PMS_P2;Temp;Humidity;BMP_temperature;BMP_pressure;BME280_temperature;BME280_humidity;BME280_pressure;Samples;Min_cycle;Max_cycle;Signal;HPM_P1;HPM_P2
2023/02/03 00:01:57;;;;;;;0.00;0.00;;;;;;;8.18;42.28;95317.50;5050664;28;20192;-62
2023/02/03 00:04:24;;;;;;;0.10;0.10;;;;;;;8.01;42.48;95327.06;5050192;28;20235;-61
2023/02/03 00:06:51;;;;;;;0.10;0.10;;;;;;;7.54;43.71;95328.06;5049019;28;20243;-61
2023/02/03 00:09:19;;;;;;;0.20;0.20;;;;;;;7.92;42.38;95318.78;5050113;28;20204;-61
2023/02/03 00:11:46;;;;;;;0.00;0.00;;;;;;;7.80;43.14;95325.00;5049709;28;20204;-63
2023/02/03 00:14:13;;;;;;;0.00;0.00;;;;;;;7.48;44.16;95331.59;5050146;28;20220;-63
2023/02/03 00:16:39;;;;;;;1.75;0.70;;;;;;;7.65;44.40;95338.50;5048681;28;20204;-63
2023/02/03 00:19:07;;;;;;;0.03;0.03;;;;;;;7.92;43.44;95325.78;5050141;28;20211;-62
2023/02/03 00:21:34;;;;;;;0.10;0.10;;;;;;;8.12;43.66;95323.63;5049350;28;20215;-62
2023/02/03 00:24:01;;;;;;;0.10;0.10;;;;;;;8.19;43.47;95326.94;5050151;28;20660;-61
2023/02/03 00:26:28;;;;;;;0.00;0.00;;;;;;;7.89;43.59;95340.09;5049804;28;20259;-62
2023/02/03 00:28:55;;;;;;;0.20;0.20;;;;;;;8.00;44.28;95336.69;5049808;28;20200;-63
2023/02/03 00:31:23;;;;;;;0.00;0.00;;;;;;;8.02;44.22;95339.06;5049209;28;20189;-63
2023/02/03 00:33:55;;;;;;;0.00;0.00;;;;;;;7.74;44.51;95344.19;5049846;28;20240;-62
2023/02/03 00:36:24;;;;;;;3.20;0.55;;;;;;;7.88;44.48;95316.84;5048017;28;20204;-64
2023/02/03 00:38:51;;;;;;;1.00;0.73;;;;;;;7.44;45.68;95356.53;5049355;28;20200;-61
2023/02/03 00:41:19;;;;;;;0.00;0.00;;;;;;;7.65;44.93;95348.94;5049244;28;20215;-62
2023/02/03 00:43:47;;;;;;;0.00;0.00;;;;;;;7.65;45.59;95358.56;5050347;28;20261;-61
2023/02/03 00:46:14;;;;;;;0.10;0.10;;;;;;;7.56;45.94;95354.72;5049139;28;20192;-63
2023/02/03 00:48:41;;;;;;;6.63;2.08;;;;;;;7.82;45.29;95362.13;5048293;28;20291;-63
2023/02/03 00:51:08;;;;;;;0.00;0.00;;;;;;;7.76;45.75;95376.84;5048393;28;20197;-62
2023/02/03 00:53:35;;;;;;;0.15;0.15;;;;;;;7.69;46.23;95365.72;5049513;28;20220;-62
2023/02/03 00:56:02;;;;;;;0.85;0.85;;;;;;;7.52;45.76;95358.81;5047522;28;20231;-63
2023/02/03 00:58:29;;;;;;;0.00;0.00;;;;;;;7.88;46.18;95372.41;5047914;28;20295;-64
2023/02/03 01:00:56;;;;;;;0.00;0.00;;;;;;;7.85;46.07;95378.09;5047432;28;20254;-61
2023/02/03 01:03:23;;;;;;;0.25;0.25;;;;;;;7.90;45.57;95372.22;5049482;28;20216;-63
2023/02/03 01:05:50;;;;;;;0.00;0.00;;;;;;;8.17;45.73;95374.13;5047270;28;20204;-61
2023/02/03 01:08:18;;;;;;;0.30;0.30;;;;;;;8.12;45.83;95376.63;5049610;28;20278;-62
2023/02/03 01:10:45;;;;;;;0.00;0.00;;;;;;;8.00;46.17;95390.69;5047095;28;20294;-61
2023/02/03 01:13:12;;;;;;;0.10;0.10;;;;;;;7.03;48.46;95381.56;5048944;28;20220;-61
2023/02/03 01:15:46;;;;;;;2.10;1.10;;;;;;;7.25;47.85;95381.06;5048087;28;20195;-64
2023/02/03 01:18:14;;;;;;;0.25;0.25;;;;;;;7.52;47.08;95382.28;5047867;28;20265;-64
2023/02/03 01:20:43;;;;;;;0.00;0.00;;;;;;;7.41;48.08;95380.44;5048061;28;20204;-62
2023/02/03 01:23:09;;;;;;;0.00;0.00;;;;;;;7.35;47.39;95382.13;5048820;28;20211;-66
2023/02/03 01:25:36;;;;;;;0.00;0.00;;;;;;;6.66;49.20;95374.06;5046715;28;20705;-62
2023/02/03 01:28:04;;;;;;;0.00;0.00;;;;;;;6.99;48.20;95364.78;5048750;28;20892;-63
2023/02/03 01:30:32;;;;;;;0.05;0.05;;;;;;;7.18;48.09;95363.72;5047802;28;20264;-62
2023/02/03 01:32:59;;;;;;;0.00;0.00;;;;;;;7.36;47.33;95359.44;5049025;28;20290;-62
2023/02/03 01:35:26;;;;;;;0.00;0.00;;;;;;;7.30;47.00;95365.56;5035610;28;20192;-64
2023/02/03 01:37:52;;;;;;;0.10;0.10;;;;;;;7.27;47.68;95373.81;5049160;28;20204;-63
2023/02/03 01:40:20;;;;;;;0.00;0.00;;;;;;;7.21;46.48;95372.13;5034868;28;20188;-65
2023/02/03 01:42:47;;;;;;;0.00;0.00;;;;;;;7.32;46.50;95381.78;5048433;28;20203;-63
2023/02/03 01:45:14;;;;;;;0.00;0.00;;;;;;;7.58;45.84;95373.53;5048420;28;20200;-66
2023/02/03 01:47:54;;;;;;;0.00;0.00;;;;;;;6.96;46.47;95386.06;5049129;28;20711;-65
2023/02/03 01:50:26;;;;;;;0.00;0.00;;;;;;;6.52;47.79;95373.41;5048192;28;20203;-65
2023/02/03 01:53:00;;;;;;;0.10;0.10;;;;;;;6.62;47.69;95394.53;5046949;28;20224;-63
2023/02/03 01:55:33;;;;;;;0.03;0.03;;;;;;;6.66;47.66;95390.44;5048274;28;20627;-63
2023/02/03 01:58:11;;;;;;;0.00;0.00;;;;;;;7.07;46.45;95377.50;5035797;28;20644;-61
2023/02/03 02:00:38;;;;;;;0.10;0.10;;;;;;;7.43;46.41;95402.66;5046368;28;20204;-60
2023/02/03 02:03:07;;;;;;;0.00;0.00;;;;;;;7.28;45.67;95394.44;5048188;28;20203;-63
2023/02/03 02:05:47;;;;;;;0.00;0.00;;;;;;;7.10;45.90;95387.47;5047732;28;20204;-62
2023/02/03 02:08:16;;;;;;;0.00;0.00;;;;;;;6.87;46.60;95387.41;5048759;28;20192;-64
2023/02/03 02:10:44;;;;;;;0.00;0.00;;;;;;;6.74;46.99;95389.38;5047587;28;20208;-62
2023/02/03 02:13:12;;;;;;;0.00;0.00;;;;;;;6.81;46.83;95384.84;5047297;28;20227;-63
2023/02/03 02:15:41;;;;;;;0.08;0.08;;;;;;;6.48;47.67;95397.50;5046448;28;20337;-61
2023/02/03 02:18:17;;;;;;;0.15;0.15;;;;;;;6.50;47.30;95391.03;5046444;28;20227;-63
2023/02/03 02:20:53;;;;;;;0.20;0.20;;;;;;;6.52;47.91;95394.22;5047832;28;20207;-62
2023/02/03 02:23:29;;;;;;;0.00;0.00;;;;;;;5.68;48.65;95401.03;5046189;28;20250;-61
2023/02/03 02:26:21;;;;;;;0.00;0.00;;;;;;;6.34;47.58;95402.03;5047982;28;20223;-62
2023/02/03 02:29:11;;;;;;;0.00;0.00;;;;;;;6.71;47.34;95403.63;5046491;28;20212;-62
2023/02/03 02:31:50;;;;;;;0.00;0.00;;;;;;;6.69;47.17;95405.66;5045772;28;20702;-61
2023/02/03 02:34:49;;;;;;;0.00;0.00;;;;;;;7.09;45.98;95417.16;5048395;28;20224;-63
2023/02/03 02:37:35;;;;;;;0.00;0.00;;;;;;;6.97;45.99;95424.13;5036359;28;20205;-63
2023/02/03 02:40:18;;;;;;;0.00;0.00;;;;;;;6.92;45.94;95417.97;5047115;28;20211;-62
2023/02/03 02:42:54;;;;;;;0.00;0.00;;;;;;;6.82;46.05;95421.13;5050604;28;20204;-64
2023/02/03 02:45:27;;;;;;;0.00;0.00;;;;;;;6.46;47.45;95421.13;5051040;28;20273;-63
2023/02/03 02:48:03;;;;;;;0.00;0.00;;;;;;;6.58;47.24;95403.78;5051725;28;20201;-63
2023/02/03 02:50:37;;;;;;;0.00;0.00;;;;;;;6.31;47.64;95407.69;5049515;28;20188;-65
2023/02/03 02:53:05;;;;;;;0.00;0.00;;;;;;;6.73;46.15;95406.78;5050188;28;20236;-61
2023/02/03 02:55:36;;;;;;;0.00;0.00;;;;;;;6.34;47.78;95417.66;5049862;28;20203;-64
2023/02/03 02:58:08;;;;;;;0.00;0.00;;;;;;;6.10;47.81;95402.88;5050327;28;20209;-63
2023/02/03 03:00:36;;;;;;;0.00;0.00;;;;;;;5.70;49.05;95397.22;5049657;28;20212;-62
2023/02/03 03:03:11;;;;;;;0.03;0.03;;;;;;;6.33;47.43;95410.88;5051397;28;20230;-62
2023/02/03 03:05:40;;;;;;;0.00;0.00;;;;;;;6.20;47.66;95416.22;5050822;28;20355;-63
2023/02/03 03:08:10;;;;;;;0.00;0.00;;;;;;;6.02;47.97;95410.97;5050410;28;20629;-63
2023/02/03 03:10:39;;;;;;;0.00;0.00;;;;;;;6.13;47.20;95425.88;5049519;28;20192;-62
2023/02/03 03:13:12;;;;;;;1.85;0.60;;;;;;;6.20;47.24;95425.81;5050219;28;20713;-62
2023/02/03 03:15:41;;;;;;;0.00;0.00;;;;;;;5.60;47.78;95425.47;5032705;28;20219;-67
2023/02/03 03:18:30;;;;;;;0.10;0.10;;;;;;;6.36;46.84;95426.06;5050977;28;20192;-62
2023/02/03 03:21:04;;;;;;;0.00;0.00;;;;;;;6.30;46.20;95431.31;5049608;28;20215;-62
2023/02/03 03:23:38;;;;;;;0.08;0.08;;;;;;;6.72;45.07;95440.88;5050918;28;20189;-63
2023/02/03 03:26:21;;;;;;;0.00;0.00;;;;;;;6.29;46.17;95432.34;5050515;28;20192;-64
2023/02/03 03:28:53;;;;;;;0.43;0.43;;;;;;;6.18;46.49;95437.22;5051309;28;20338;-63
2023/02/03 03:31:20;;;;;;;0.10;0.10;;;;;;;6.60;45.69;95438.22;5050930;28;20204;-62
2023/02/03 03:33:47;;;;;;;0.00;0.00;;;;;;;6.46;44.79;95431.53;5050744;28;20371;-64
2023/02/03 03:36:28;;;;;;;0.00;0.00;;;;;;;5.76;46.04;95444.97;5050394;28;20205;-62
2023/02/03 03:39:12;;;;;;;0.00;0.00;;;;;;;5.98;46.02;95443.63;5051048;28;20275;-62
2023/02/03 03:41:59;;;;;;;0.00;0.00;;;;;;;6.65;44.83;95446.16;5050056;28;20192;-63
2023/02/03 03:44:33;;;;;;;0.30;0.30;;;;;;;6.45;44.88;95450.78;5050909;28;20288;-62
2023/02/03 03:47:18;;;;;;;0.00;0.00;;;;;;;6.40;44.27;95452.44;5049476;28;20193;-62
2023/02/03 03:49:47;;;;;;;0.20;0.20;;;;;;;6.64;44.36;95454.97;5050842;28;20227;-63
2023/02/03 03:52:20;;;;;;;0.20;0.20;;;;;;;6.42;44.32;95451.22;5049190;28;20204;-62
2023/02/03 03:54:48;;;;;;;0.00;0.00;;;;;;;6.60;44.07;95451.22;5049937;28;20243;-62
2023/02/03 03:57:24;;;;;;;0.00;0.00;;;;;;;5.79;45.11;95449.75;5050478;28;20247;-64
2023/02/03 03:59:52;;;;;;;0.57;0.10;;;;;;;6.39;44.67;95458.63;5050385;28;20270;-62
2023/02/03 04:02:20;;;;;;;0.10;0.10;;;;;;;6.74;44.19;95468.28;5050292;28;20659;-62
2023/02/03 04:04:48;;;;;;;0.00;0.00;;;;;;;6.50;44.52;95468.34;5050031;28;20196;-62
2023/02/03 04:07:15;;;;;;;0.00;0.00;;;;;;;6.29;45.47;95472.16;5049786;28;20247;-64
2023/02/03 04:09:42;;;;;;;0.40;0.40;;;;;;;6.49;44.74;95472.78;5050024;28;20215;-61
2023/02/03 04:12:20;;;;;;;0.30;0.30;;;;;;;7.04;43.96;95473.56;5049175;28;20261;-62
2023/02/03 04:14:47;;;;;;;0.35;0.35;;;;;;;6.59;44.74;95482.66;5049934;28;20622;-61
2023/02/03 04:17:14;;;;;;;0.20;0.20;;;;;;;6.49;44.53;95472.78;5049574;28;20721;-61
2023/02/03 04:19:41;;;;;;;0.10;0.10;;;;;;;7.15;43.80;95485.84;5050200;28;20209;-61
2023/02/03 04:22:08;;;;;;;1.88;1.17;;;;;;;6.98;43.89;95488.25;5049549;28;20231;-61
2023/02/03 04:24:35;;;;;;;0.00;0.00;;;;;;;7.37;43.06;95507.84;5050124;28;20227;-63
2023/02/03 04:27:02;;;;;;;0.00;0.00;;;;;;;7.01;43.44;95503.44;5049412;28;20655;-63
2023/02/03 04:29:31;;;;;;;0.00;0.00;;;;;;;7.48;42.93;95501.84;5049930;28;20250;-62
2023/02/03 04:31:57;;;;;;;0.00;0.00;;;;;;;7.55;42.39;95509.59;5049194;28;20718;-62
2023/02/03 04:34:24;;;;;;;0.00;0.00;;;;;;;7.60;42.83;95513.13;5050227;28;20224;-61
2023/02/03 04:36:51;;;;;;;0.10;0.10;;;;;;;6.88;44.20;95508.00;5049138;28;20689;-65
2023/02/03 04:39:18;;;;;;;0.00;0.00;;;;;;;6.09;45.16;95515.78;5049250;28;20269;-60
2023/02/03 04:41:44;;;;;;;0.00;0.00;;;;;;;6.72;44.41;95517.19;5049104;28;20621;-63
2023/02/03 04:44:11;;;;;;;0.10;0.10;;;;;;;6.54;44.43;95517.19;5049284;28;20197;-62
2023/02/03 04:46:38;;;;;;;0.00;0.00;;;;;;;6.55;45.19;95529.16;5048623;28;20670;-61
2023/02/03 04:49:05;;;;;;;0.28;0.28;;;;;;;7.13;43.93;95522.53;5048922;28;20285;-61
2023/02/03 04:51:32;;;;;;;0.00;0.00;;;;;;;6.87;43.84;95520.25;5048930;28;20199;-61
2023/02/03 04:53:58;;;;;;;0.00;0.00;;;;;;;6.59;44.99;95535.53;5049647;28;20315;-61
2023/02/03 04:56:25;;;;;;;1.20;0.75;;;;;;;6.36;44.96;95535.38;5049327;28;20552;-61
2023/02/03 04:58:52;;;;;;;0.00;0.00;;;;;;;6.22;45.78;95533.09;5048768;28;20723;-63
2023/02/03 05:01:19;;;;;;;0.00;0.00;;;;;;;5.92;46.21;95538.91;5047915;28;20226;-63
2023/02/03 05:03:46;;;;;;;0.00;0.00;;;;;;;6.37;45.40;95539.53;5049244;28;20597;-63
2023/02/03 05:06:13;;;;;;;0.00;0.00;;;;;;;6.53;45.26;95552.00;5048368;28;20189;-62
2023/02/03 05:08:39;;;;;;;0.00;0.00;;;;;;;6.32;45.85;95555.00;5048519;28;20223;-63
2023/02/03 05:11:06;;;;;;;0.00;0.00;;;;;;;6.65;45.34;95549.50;5047921;28;20589;-64
2023/02/03 05:13:33;;;;;;;0.25;0.25;;;;;;;6.87;44.56;95556.72;5049080;28;20208;-62
2023/02/03 05:16:00;;;;;;;0.73;0.68;;;;;;;6.68;44.32;95549.88;5048361;28;20201;-63
2023/02/03 05:18:27;;;;;;;0.00;0.00;;;;;;;6.33;44.84;95538.41;5049470;28;20246;-60
2023/02/03 05:20:54;;;;;;;0.00;0.00;;;;;;;6.32;45.62;95568.03;5046760;28;20197;-62
2023/02/03 05:23:20;;;;;;;0.20;0.20;;;;;;;6.65;44.71;95565.13;5048777;28;20227;-63
2023/02/03 05:25:47;;;;;;;0.00;0.00;;;;;;;6.74;44.92;95569.88;5048667;28;20200;-62
2023/02/03 05:28:14;;;;;;;0.00;0.00;;;;;;;6.59;45.27;95572.00;5048674;28;20200;-67
2023/02/03 05:30:41;;;;;;;0.10;0.10;;;;;;;6.38;47.68;95575.00;5048418;28;20672;-62
2023/02/03 05:33:08;;;;;;;0.10;0.10;;;;;;;6.59;44.79;95571.19;5048252;28;20585;-66
2023/02/03 05:35:35;;;;;;;0.00;0.00;;;;;;;6.99;43.92;95562.00;5047998;28;20780;-62
2023/02/03 05:38:02;;;;;;;0.00;0.00;;;;;;;6.60;44.69;95571.00;5048282;28;20200;-63
2023/02/03 05:43:14;;;;;;;0.00;0.00;;;;;;;6.46;44.93;95561.69;5048108;28;20696;-61
2023/02/03 05:45:41;;;;;;;0.00;0.00;;;;;;;6.42;45.16;95560.56;5047152;28;20193;-63
2023/02/03 05:48:08;;;;;;;0.00;0.00;;;;;;;6.71;45.71;95570.31;5047836;28;20201;-65
2023/02/03 05:50:36;;;;;;;1.38;1.27;;;;;;;6.49;45.31;95576.91;5047806;28;20262;-65
2023/02/03 05:53:07;;;;;;;0.05;0.05;;;;;;;6.79;44.61;95571.81;5047174;28;20274;-63
2023/02/03 05:55:35;;;;;;;0.52;0.52;;;;;;;7.03;44.91;95574.38;5047160;28;20223;-61
2023/02/03 05:58:03;;;;;;;0.38;0.35;;;;;;;7.14;43.54;95565.84;5046523;28;20761;-61
2023/02/03 06:00:30;;;;;;;0.00;0.00;;;;;;;6.00;44.37;95556.84;5046110;28;20227;-63
2023/02/03 06:02:59;;;;;;;0.08;0.08;;;;;;;6.56;44.07;95582.84;5047060;28;20196;-62
2023/02/03 06:05:27;;;;;;;0.00;0.00;;;;;;;6.22;45.48;95585.13;5046206;28;20197;-64
2023/02/03 06:07:54;;;;;;;0.00;0.00;;;;;;;6.02;46.08;95590.47;5043384;28;20630;-68
2023/02/03 06:10:22;;;;;;;0.28;0.28;;;;;;;6.25;45.95;95584.69;5048132;28;20308;-70
2023/02/03 06:12:49;;;;;;;0.17;0.08;;;;;;;6.15;45.77;95590.38;5048996;28;20295;-65
2023/02/03 06:15:16;;;;;;;1.23;0.38;;;;;;;6.05;45.32;95592.66;5049076;28;20679;-63
2023/02/03 06:17:47;;;;;;;0.00;0.00;;;;;;;6.32;44.96;95594.06;5052046;28;20273;-66
2023/02/03 06:20:17;;;;;;;0.00;0.00;;;;;;;6.38;45.12;95595.81;5051914;28;20269;-66
2023/02/03 06:22:45;;;;;;;0.00;0.00;;;;;;;6.17;45.56;95596.16;5051040;28;20660;-62
2023/02/03 06:25:13;;;;;;;0.05;0.05;;;;;;;6.17;45.12;95601.34;5051108;28;20630;-62
2023/02/03 06:27:40;;;;;;;0.90;0.73;;;;;;;6.30;44.74;95605.66;5051910;28;20286;-62
2023/02/03 06:30:08;;;;;;;0.77;0.35;;;;;;;5.88;45.65;95615.75;5051539;28;20192;-66
2023/02/03 06:32:35;;;;;;;0.22;0.22;;;;;;;5.99;44.81;95593.47;5051518;28;20267;-63
2023/02/03 06:35:02;;;;;;;0.30;0.30;;;;;;;5.60;46.25;95617.84;5051285;28;20739;-65
2023/02/03 06:37:29;;;;;;;0.00;0.00;;;;;;;6.11;44.96;95625.63;5051840;28;20197;-63
2023/02/03 06:39:55;;;;;;;0.00;0.00;;;;;;;6.05;44.87;95629.88;5051073;28;20266;-64
2023/02/03 06:42:22;;;;;;;0.00;0.00;;;;;;;6.54;43.96;95629.13;5051967;28;20207;-63
2023/02/03 06:44:49;;;;;;;0.08;0.08;;;;;;;5.86;45.01;95632.56;5051317;28;20269;-64
2023/02/03 06:47:16;;;;;;;0.35;0.35;;;;;;;6.62;43.93;95634.09;5052034;28;20701;-65
2023/02/03 06:49:43;;;;;;;0.00;0.00;;;;;;;7.02;43.53;95634.53;5052307;28;20201;-64
2023/02/03 06:52:10;;;;;;;0.00;0.00;;;;;;;7.48;42.17;95634.06;5051435;28;20688;-64
2023/02/03 06:54:37;;;;;;;0.00;0.00;;;;;;;7.12;42.26;95633.00;5051772;28;20266;-65
2023/02/03 06:57:03;;;;;;;0.00;0.00;;;;;;;7.08;42.80;95634.47;5051198;28;20192;-62
2023/02/03 06:59:30;;;;;;;0.00;0.00;;;;;;;7.51;42.05;95623.97;5051563;28;20207;-65
2023/02/03 07:01:57;;;;;;;0.00;0.00;;;;;;;7.80;41.40;95610.19;5051334;28;20204;-64
2023/02/03 07:04:27;;;;;;;0.22;0.22;;;;;;;8.09;40.74;95627.66;5051691;28;20220;-64
2023/02/03 07:06:54;;;;;;;0.13;0.10;;;;;;;6.94;41.78;95638.19;5051340;28;20295;-64
2023/02/03 07:09:21;;;;;;;0.00;0.00;;;;;;;6.82;42.02;95613.88;5038713;28;20204;-63
2023/02/03 07:11:48;;;;;;;0.00;0.00;;;;;;;7.21;41.48;95610.06;5050929;28;20266;-65
2023/02/03 07:14:15;;;;;;;0.15;0.15;;;;;;;7.36;41.14;95609.69;5051524;28;20718;-64
2023/02/03 07:16:41;;;;;;;0.75;0.75;;;;;;;7.43;40.73;95610.41;5050719;28;20274;-64
2023/02/03 07:19:08;;;;;;;0.00;0.00;;;;;;;7.31;41.21;95606.97;5051552;28;20697;-64
2023/02/03 07:21:35;;;;;;;0.00;0.00;;;;;;;7.54;41.23;95617.50;5050556;28;20704;-63
2023/02/03 07:24:02;;;;;;;0.00;0.00;;;;;;;7.73;40.50;95606.06;5051380;28;20204;-62
2023/02/03 07:26:29;;;;;;;0.88;0.88;;;;;;;7.22;41.80;95617.66;5050668;28;20193;-63
2023/02/03 07:28:58;;;;;;;0.55;0.25;;;;;;;7.38;41.20;95607.69;5051306;28;20204;-63
2023/02/03 07:31:25;;;;;;;0.00;0.00;;;;;;;7.52;41.38;95616.97;5050031;28;20228;-63
2023/02/03 07:33:52;;;;;;;0.10;0.10;;;;;;;7.86;40.56;95616.31;5051006;28;20221;-64
2023/02/03 07:36:19;;;;;;;0.10;0.10;;;;;;;7.76;40.17;95610.81;5050253;28;20209;-65
2023/02/03 07:38:46;;;;;;;0.00;0.00;;;;;;;7.34;41.16;95606.50;5050888;28;20228;-67
2023/02/03 07:41:13;;;;;;;0.00;0.00;;;;;;;7.86;40.36;95613.72;5050467;28;20205;-64
2023/02/03 07:43:44;;;;;;;0.00;0.00;;;;;;;7.93;39.86;95622.25;5051529;28;20303;-66
2023/02/03 07:46:11;;;;;;;0.00;0.00;;;;;;;7.97;39.61;95623.41;5050575;28;20648;-64
2023/02/03 07:48:38;;;;;;;0.00;0.00;;;;;;;8.17;39.46;95626.56;5050796;28;20240;-65
2023/02/03 07:51:05;;;;;;;0.32;0.32;;;;;;;7.81;39.91;95631.84;5049836;28;20738;-64
2023/02/03 07:53:32;;;;;;;0.00;0.00;;;;;;;7.66;40.37;95632.25;5050644;28;20223;-64
2023/02/03 07:56:01;;;;;;;0.00;0.00;;;;;;;7.84;40.08;95623.56;5050076;28;20227;-63
2023/02/03 07:58:29;;;;;;;0.00;0.00;;;;;;;8.66;38.67;95626.25;5050784;28;20204;-65
2023/02/03 08:00:56;;;;;;;0.00;0.00;;;;;;;7.82;39.92;95620.38;5050086;28;20560;-64
2023/02/03 08:03:24;;;;;;;0.10;0.10;;;;;;;7.91;39.68;95634.72;5050800;28;20211;-68
2023/02/03 08:05:52;;;;;;;0.00;0.00;;;;;;;7.51;39.28;95615.34;5049704;28;20667;-64
2023/02/03 08:08:19;;;;;;;0.00;0.00;;;;;;;8.62;38.05;95630.31;5050545;28;20648;-64
2023/02/03 08:10:46;;;;;;;2.17;0.63;;;;;;;8.19;38.62;95627.13;5049612;28;20254;-64
2023/02/03 08:13:13;;;;;;;0.00;0.00;;;;;;;7.86;39.56;95634.59;5050710;28;20215;-63
2023/02/03 08:15:40;;;;;;;0.00;0.00;;;;;;;8.15;39.34;95639.81;5049305;28;20291;-64
2023/02/03 08:18:08;;;;;;;1.42;0.73;;;;;;;8.98;37.66;95647.59;5050144;28;20232;-66
2023/02/03 08:20:35;;;;;;;1.17;0.65;;;;;;;9.25;37.65;95638.31;5049499;28;20287;-64
2023/02/03 08:23:02;;;;;;;0.10;0.10;;;;;;;8.68;37.34;95647.72;5049617;28;20199;-65
2023/02/03 08:25:29;;;;;;;0.00;0.00;;;;;;;7.77;39.35;95654.19;5049690;28;20224;-65
2023/02/03 08:27:56;;;;;;;0.00;0.00;;;;;;;7.86;38.64;95631.97;5049881;28;20220;-62
2023/02/03 08:30:24;;;;;;;0.03;0.03;;;;;;;8.36;37.80;95648.22;5049093;28;20195;-63
2023/02/03 08:32:51;;;;;;;0.10;0.10;;;;;;;8.77;38.49;95651.59;5050008;28;20229;-65
2023/02/03 08:35:18;;;;;;;0.40;0.40;;;;;;;9.36;37.23;95657.63;5049243;28;20227;-63
2023/02/03 08:37:45;;;;;;;0.00;0.00;;;;;;;8.33;37.46;95652.06;5049079;28;20215;-65
2023/02/03 08:40:12;;;;;;;0.00;0.00;;;;;;;8.08;37.95;95646.16;5048811;28;20212;-65
2023/02/03 08:42:38;;;;;;;0.20;0.20;;;;;;;8.45;37.18;95658.09;5049417;28;20200;-65
2023/02/03 08:45:06;;;;;;;0.30;0.30;;;;;;;9.15;36.58;95662.41;5049453;28;20201;-65
2023/02/03 08:47:35;;;;;;;0.20;0.20;;;;;;;9.55;35.66;95661.69;5049771;28;20606;-62
2023/02/03 08:50:04;;;;;;;0.00;0.00;;;;;;;9.16;36.58;95666.59;5049267;28;20196;-67
2023/02/03 08:52:32;;;;;;;0.00;0.00;;;;;;;8.39;37.04;95659.00;5049523;28;20204;-64
2023/02/03 08:54:58;;;;;;;0.55;0.55;;;;;;;8.51;37.01;95667.66;5049557;28;20220;-64
2023/02/03 08:57:25;;;;;;;0.00;0.00;;;;;;;8.08;37.34;95685.31;5048919;28;20299;-65
2023/02/03 08:59:53;;;;;;;0.45;0.45;;;;;;;8.62;36.73;95689.59;5049442;28;20224;-65
2023/02/03 09:02:20;;;;;;;0.00;0.00;;;;;;;8.77;36.13;95690.78;5049124;28;20205;-64
2023/02/03 09:04:47;;;;;;;0.82;0.82;;;;;;;9.03;36.19;95682.50;5049046;28;20196;-64
2023/02/03 09:07:15;;;;;;;0.52;0.52;;;;;;;8.92;35.87;95685.91;5049151;28;20193;-66
2023/02/03 09:09:42;;;;;;;0.30;0.28;;;;;;;9.29;35.92;95690.94;5049197;28;20193;-64
2023/02/03 09:12:11;;;;;;;0.00;0.00;;;;;;;8.75;37.29;95679.75;5048738;28;20246;-65
2023/02/03 09:14:38;;;;;;;0.10;0.10;;;;;;;7.92;37.72;95662.41;5049082;28;20217;-65
2023/02/03 09:17:07;;;;;;;0.00;0.00;;;;;;;7.53;38.86;95670.69;5048494;28;20199;-63
2023/02/03 09:19:34;;;;;;;0.10;0.10;;;;;;;8.25;37.96;95678.47;5049383;28;20200;-64
2023/02/03 09:22:02;;;;;;;0.00;0.00;;;;;;;8.46;37.97;95675.38;5048200;28;20246;-64
2023/02/03 09:24:30;;;;;;;0.00;0.00;;;;;;;9.01;37.34;95675.94;5049011;28;20656;-65
2023/02/03 09:26:56;;;;;;;0.10;0.10;;;;;;;9.30;36.84;95659.34;5047905;28;20271;-66
2023/02/03 09:29:23;;;;;;;0.00;0.00;;;;;;;8.99;37.25;95670.94;5048773;28;20663;-67
2023/02/03 09:31:53;;;;;;;0.00;0.00;;;;;;;8.29;38.16;95679.63;5047603;28;20254;-67
2023/02/03 09:34:20;;;;;;;0.00;0.00;;;;;;;8.25;38.92;95660.19;5048387;28;20563;-60
2023/02/03 09:36:48;;;;;;;0.50;0.50;;;;;;;10.02;36.45;95655.31;5046365;28;20202;-66
2023/02/03 09:39:15;;;;;;;0.65;0.65;;;;;;;10.39;36.13;95667.03;5048384;28;20262;-63
2023/02/03 09:41:48;;;;;;;0.30;0.30;;;;;;;11.38;33.52;95654.97;5047912;28;20731;-64
2023/02/03 09:44:26;;;;;;;0.20;0.20;;;;;;;11.34;33.58;95653.88;5048483;28;20211;-66
2023/02/03 09:46:58;;;;;;;0.43;0.43;;;;;;;10.60;34.27;95663.72;5035892;28;20644;-66
2023/02/03 09:49:49;;;;;;;0.00;0.00;;;;;;;11.17;34.09;95662.56;5047797;28;20211;-63
2023/02/03 09:52:27;;;;;;;0.00;0.00;;;;;;;10.49;34.06;95651.47;5048894;28;20296;-63
2023/02/03 09:55:01;;;;;;;0.10;0.10;;;;;;;10.92;33.53;95659.56;5035801;28;20606;-64
2023/02/03 09:57:42;;;;;;;0.00;0.00;;;;;;;10.51;33.63;95649.44;5048613;28;20208;-65
2023/02/03 10:00:19;;;;;;;0.25;0.25;;;;;;;9.61;34.58;95663.38;5048551;28;20192;-63
2023/02/03 10:02:58;;;;;;;0.00;0.00;;;;;;;9.77;33.85;95657.44;5046738;28;20254;-65
2023/02/03 10:05:31;;;;;;;0.00;0.00;;;;;;;9.97;33.88;95647.34;5048075;28;20861;-66
2023/02/03 10:08:13;;;;;;;0.00;0.00;;;;;;;9.46;34.03;95639.50;5048272;28;20203;-63
2023/02/03 10:11:15;;;;;;;1.15;1.05;;;;;;;9.48;34.57;95658.41;5047917;28;20254;-65
2023/02/03 10:13:57;;;;;;;0.10;0.10;;;;;;;8.84;34.17;95620.09;5046334;28;20192;-67
2023/02/03 10:16:57;;;;;;;0.63;0.57;;;;;;;8.99;34.92;95644.00;5046328;28;20984;-66
2023/02/03 10:19:37;;;;;;;0.00;0.00;;;;;;;9.49;33.22;95644.31;5048343;28;20204;-67
2023/02/03 10:22:07;;;;;;;0.00;0.00;;;;;;;9.85;33.18;95651.84;5047821;28;20191;-63
2023/02/03 10:24:46;;;;;;;0.10;0.10;;;;;;;10.35;32.53;95650.19;5048174;28;20675;-64
2023/02/03 10:27:20;;;;;;;0.25;0.25;;;;;;;10.38;32.63;95641.88;5046673;28;20192;-66
2023/02/03 10:29:58;;;;;;;0.00;0.00;;;;;;;10.08;32.49;95644.72;5047954;28;20295;-65
2023/02/03 10:32:26;;;;;;;2.83;1.08;;;;;;;9.96;32.51;95637.94;5048164;28;20318;-63
2023/02/03 10:34:54;;;;;;;0.00;0.00;;;;;;;9.97;32.43;95626.41;5047319;28;20303;-66
2023/02/03 10:37:35;;;;;;;0.00;0.00;;;;;;;10.69;32.63;95633.47;5030475;28;20228;-62
2023/02/03 10:40:03;;;;;;;0.03;0.03;;;;;;;10.58;31.84;95623.88;5047608;28;20203;-64
2023/02/03 10:45:19;;;;;;;0.05;0.05;;;;;;;10.47;30.70;95600.38;5035289;28;20266;-63
2023/02/03 10:47:50;;;;;;;0.00;0.00;;;;;;;10.30;31.57;95621.28;5046602;28;20219;-63
2023/02/03 10:50:20;;;;;;;0.00;0.00;;;;;;;10.25;31.83;95634.31;5047932;28;20192;-65
2023/02/03 10:52:47;;;;;;;1.10;0.55;;;;;;;10.16;32.03;95626.00;5047954;28;20243;-63
2023/02/03 10:55:21;;;;;;;0.10;0.10;;;;;;;10.15;32.04;95636.72;5047293;28;20707;-64
2023/02/03 10:57:48;;;;;;;0.00;0.00;;;;;;;9.51;31.92;95626.53;5048072;28;20457;-66
2023/02/03 11:00:19;;;;;;;0.00;0.00;;;;;;;9.05;31.96;95643.88;5048071;28;20205;-64
2023/02/03 11:03:30;;;;;;;0.00;0.00;;;;;;;8.81;32.47;95634.41;5051708;28;20737;-67
2023/02/03 11:06:14;;;;;;;0.00;0.00;;;;;;;8.79;31.38;95633.88;5044121;28;20224;-68
2023/02/03 11:08:47;;;;;;;0.00;0.00;;;;;;;9.01;31.34;95613.97;5047001;28;20204;-66
2023/02/03 11:11:19;;;;;;;0.57;0.57;;;;;;;9.34;31.40;95631.72;5051433;28;20204;-63
2023/02/03 11:14:01;;;;;;;0.00;0.00;;;;;;;8.57;31.90;95629.41;5051538;28;20609;-64
2023/02/03 11:16:31;;;;;;;0.00;0.00;;;;;;;8.73;32.24;95633.97;5051229;28;20216;-63
2023/02/03 11:19:01;;;;;;;0.00;0.00;;;;;;;8.46;32.81;95628.34;5038599;28;20284;-65
2023/02/03 11:21:31;;;;;;;0.00;0.00;;;;;;;8.86;32.23;95613.66;5050569;28;20200;-63
2023/02/03 11:24:19;;;;;;;0.47;0.47;;;;;;;9.54;31.85;95626.91;5051191;28;20246;-63
2023/02/03 11:26:49;;;;;;;0.00;0.00;;;;;;;9.01;31.40;95623.66;5050565;28;20823;-66
2023/02/03 11:29:27;;;;;;;0.10;0.10;;;;;;;9.38;30.24;95608.50;5051524;28;20208;-63
2023/02/03 11:31:56;;;;;;;0.45;0.32;;;;;;;9.23;30.19;95609.75;5049934;28;20184;-65
2023/02/03 11:34:28;;;;;;;0.35;0.35;;;;;;;9.39;30.44;95602.22;5051204;28;20200;-65
2023/02/03 11:36:55;;;;;;;0.00;0.00;;;;;;;9.69;30.95;95603.63;5050341;28;20273;-66
2023/02/03 11:39:27;;;;;;;0.00;0.00;;;;;;;9.98;30.46;95591.38;5051180;28;20230;-63
2023/02/03 11:41:55;;;;;;;0.00;0.00;;;;;;;10.38;30.65;95592.13;5050438;28;20556;-64
2023/02/03 11:44:29;;;;;;;0.40;0.40;;;;;;;10.63;30.08;95579.41;5050696;28;20236;-65
2023/02/03 11:47:06;;;;;;;0.00;0.00;;;;;;;10.32;30.16;95577.31;5050031;28;20297;-65
2023/02/03 11:49:40;;;;;;;0.00;0.00;;;;;;;9.79;30.70;95574.25;5037105;28;20600;-64
2023/02/03 11:52:36;;;;;;;0.10;0.10;;;;;;;9.71;31.14;95579.84;5050321;28;20656;-66
2023/02/03 11:55:03;;;;;;;0.00;0.00;;;;;;;9.37;30.53;95586.78;5040461;28;20205;-64
2023/02/03 11:57:58;;;;;;;0.30;0.30;;;;;;;9.06;29.32;95577.50;5050896;28;20583;-66
2023/02/03 12:00:34;;;;;;;0.00;0.00;;;;;;;9.50;29.32;95577.88;5048840;28;20219;-65
2023/02/03 12:03:23;;;;;;;0.00;0.00;;;;;;;9.47;29.54;95586.19;5050860;28;20204;-67